Terminal Aerodrome Forecast
Issued by NWS Buffalo, NY

Home | Current Version | Previous Version | Text Only | Print | Product List | Glossary On
Versions: 1 2 3 4 5 6 7 8 9 10 11 12 13 14 15 16 17 18 19 20 21 22 23 24 25 26 27 28 29 30 31
000
FTUS41 KBUF 192300
TAFART
TAF
KART 192320Z 2000/2024 08005KT P6SM SCT200
     FM200300 13010G16KT P6SM BKN200
     FM200800 14014G25KT 6SM -SHRA OVC090
     FM201200 12022G33KT 6SM -SHRA OVC045
     FM202000 14023G30KT P6SM VCSH BKN060=

USA.gov is the U.S. government's official web portal to all federal, state and local government web resources and services.